| time (UTC) | temp F | wind direction | speed knots | gust knots | rain 1hr in | rain 24hr in | rain mn in | humidity % | barometer mb |
| 20260507191602 | 71 | 108 | 2.6 | 5.2 | 0.00 | 0.00 | 0.00 | 35 | 1016.0 |
| 20260507184602 | 69 | 146 | 1.7 | 6.1 | 0.00 | 0.00 | 0.00 | 39 | 1016.2 |
| 20260507183102 | 69 | 115 | 2.6 | 5.2 | 0.00 | 0.00 | 0.00 | 39 | 1016.3 |
| 20260507181602 | 68 | 52 | 4.3 | 5.2 | 0.00 | 0.00 | 0.00 | 40 | 1016.5 |
| 20260507180104 | 67 | 131 | 1.7 | 5.2 | 0.00 | 0.00 | 0.00 | 42 | 1016.4 |
| 20260507173102 | 67 | 39 | 0.0 | 4.3 | 0.00 | 0.00 | 0.00 | 44 | 1016.6 |
| 20260507164602 | 65 | 36 | 0.9 | 3.5 | 0.00 | 0.00 | 0.00 | 42 | 1016.9 |
| 20260507163105 | 64 | 121 | 0.0 | 0.9 | 0.00 | 0.00 | 0.00 | 44 | 1016.9 |
| 20260507161602 | 64 | 242 | 0.0 | 1.7 | 0.00 | 0.00 | 0.00 | 46 | 1017.0 |
| 20260507154602 | 62 | 203 | 0.0 | 1.7 | 0.00 | 0.00 | 0.00 | 49 | 1017.1 |
| 20260507153102 | 61 | 250 | 2.6 | 2.6 | 0.00 | 0.00 | 0.00 | 55 | 1017.2 |
| 20260507144601 | 57 | 143 | 0.0 | 0.9 | 0.00 | 0.00 | 0.00 | 59 | 1016.9 |
| 20260507143101 | 56 | 110 | 0.0 | 0.9 | 0.00 | 0.00 | 0.00 | 60 | 1016.8 |
| 20260507141601 | 55 | 38 | 0.0 | 0.0 | 0.00 | 0.00 | 0.00 | 65 | 1016.8 |
| 20260507134602 | 51 | 345 | 0.0 | 1.7 | 0.00 | 0.00 | 0.00 | 68 | 1016.4 |
| 20260507133102 | 47 | 330 | 0.0 | 1.7 | 0.00 | 0.00 | 0.00 | 72 | 1016.0 |
| 20260507131601 | 47 | 330 | 0.0 | 1.7 | 0.00 | 0.00 | 0.00 | 72 | 1016.0 |
| 20260507124602 | 47 | 340 | 0.0 | 3.5 | 0.00 | 0.00 | 0.00 | 69 | 1016.1 |
| 20260507123102 | 48 | 347 | 0.9 | 2.6 | 0.00 | 0.00 | 0.00 | 64 | 1016.0 |
| 20260507121605 | 48 | 26 | 1.7 | 2.6 | 0.00 | 0.00 | 0.00 | 64 | 1016.0 |
| 20260507114602 | 48 | 331 | 0.9 | 3.5 | 0.00 | 0.00 | 0.00 | 63 | 1015.8 |
| 20260507113101 | 49 | 33 | 0.0 | 2.6 | 0.00 | 0.00 | 0.00 | 60 | 1015.8 |
| 20260507111601 | 49 | 330 | 1.7 | 4.3 | 0.00 | 0.00 | 0.00 | 61 | 1015.8 |
| 20260507104606 | 50 | 338 | 1.7 | 2.6 | 0.00 | 0.00 | 0.00 | 59 | 1015.6 |
| 20260507103101 | 48 | 18 | 0.9 | 4.3 | 0.00 | 0.00 | 0.00 | 67 | 1015.6 |
| 20260507101602 | 48 | 355 | 1.7 | 4.3 | 0.00 | 0.00 | 0.00 | 68 | 1015.5 |
| 20260507094602 | 48 | 340 | 0.0 | 1.7 | 0.00 | 0.00 | 0.00 | 74 | 1015.4 |
| 20260507093102 | 50 | 8 | 0.0 | 1.7 | 0.00 | 0.00 | 0.00 | 70 | 1015.3 |
| 20260507091602 | 54 | 335 | 0.0 | 2.6 | 0.00 | 0.00 | 0.00 | 64 | 1015.4 |
| 20260507084602 | 54 | 236 | 0.9 | 2.6 | 0.00 | 0.00 | 0.00 | 64 | 1015.4 |
| 20260507083102 | 54 | 22 | 0.0 | 2.6 | 0.00 | 0.00 | 0.00 | 67 | 1015.3 |
| 20260507081601 | 53 | 350 | 0.9 | 3.5 | 0.00 | 0.00 | 0.00 | 68 | 1015.4 |
| 20260507074603 | 57 | 257 | 0.9 | 1.7 | 0.00 | 0.00 | 0.00 | 60 | 1015.4 |
| 20260507073103 | 57 | 100 | 0.0 | 0.9 | 0.00 | 0.00 | 0.00 | 57 | 1015.5 |
| 20260507071603 | 56 | 334 | 0.0 | 1.7 | 0.00 | 0.00 | 0.00 | 56 | 1015.4 |
| 20260507064606 | 58 | 26 | 0.0 | 0.9 | 0.00 | 0.00 | 0.00 | 52 | 1015.4 |
| 20260507063106 | 61 | 341 | 0.9 | 2.6 | 0.00 | 0.00 | 0.00 | 44 | 1015.3 |
| 20260507061604 | 59 | 333 | 1.7 | 1.7 | 0.00 | 0.00 | 0.00 | 47 | 1015.2 |
| 20260507060105 | 60 | 338 | 3.5 | 4.3 | 0.00 | 0.00 | 0.00 | 46 | 1015.4 |
| 20260507054604 | 60 | 308 | 0.9 | 3.5 | 0.00 | 0.00 | 0.00 | 50 | 1015.5 |
| 20260507053106 | 62 | 347 | 0.9 | 2.6 | 0.00 | 0.00 | 0.00 | 43 | 1015.6 |
| 20260507051604 | 63 | 348 | 0.0 | 3.5 | 0.00 | 0.00 | 0.00 | 42 | 1015.7 |
| 20260507050105 | 62 | 30 | 0.9 | 2.6 | 0.00 | 0.00 | 0.00 | 47 | 1015.8 |
| 20260507044605 | 62 | 64 | 1.7 | 4.3 | 0.00 | 0.00 | 0.00 | 52 | 1015.8 |
| 20260507041606 | 59 | 342 | 1.7 | 3.5 | 0.00 | 0.00 | 0.00 | 66 | 1015.5 |
| 20260507040106 | 61 | 332 | 0.9 | 2.6 | 0.00 | 0.00 | 0.00 | 64 | 1015.4 |
| 20260507034606 | 61 | 341 | 0.0 | 2.6 | 0.00 | 0.00 | 0.00 | 63 | 1015.3 |
| 20260507033104 | 62 | 319 | 0.0 | 3.5 | 0.00 | 0.00 | 0.00 | 64 | 1015.2 |
| 20260507031604 | 64 | 311 | 1.7 | 4.3 | 0.00 | 0.00 | 0.00 | 58 | 1015.2 |
| 20260507030105 | 63 | 330 | 0.9 | 5.2 | 0.00 | 0.00 | 0.00 | 63 | 1015.2 |
| 20260507024603 | 65 | 314 | 0.0 | 2.6 | 0.00 | 0.00 | 0.00 | 61 | 1015.1 |
| 20260507023102 | 67 | 289 | 1.7 | 2.6 | 0.00 | 0.00 | 0.00 | 56 | 1015.1 |
| 20260507021602 | 69 | 301 | 0.0 | 4.3 | 0.00 | 0.00 | 0.00 | 51 | 1014.9 |
| 20260507020105 | 72 | 25 | 0.0 | 0.9 | 0.00 | 0.00 | 0.00 | 47 | 1014.9 |
| 20260507014602 | 72 | 25 | 0.0 | 0.9 | 0.00 | 0.00 | 0.00 | 44 | 1014.9 |
| 20260507013103 | 73 | 89 | 0.0 | 1.7 | 0.00 | 0.00 | 0.00 | 44 | 1014.9 |
| 20260507011604 | 72 | 345 | 0.0 | 0.9 | 0.00 | 0.00 | 0.00 | 49 | 1015.0 |
| 20260507010104 | 72 | 19 | 0.0 | 1.7 | 0.00 | 0.00 | 0.00 | 48 | 1015.0 |
| 20260507004602 | 72 | 25 | 0.0 | 0.9 | 0.00 | 0.00 | 0.00 | 49 | 1015.0 |
| 20260507003102 | 73 | 46 | 2.6 | 2.6 | 0.00 | 0.00 | 0.00 | 42 | 1015.2 |
| 20260507001602 | 75 | 125 | 0.0 | 2.6 | 0.00 | 0.00 | 0.00 | 39 | 1015.1 |
| 20260506234603 | 75 | 150 | 0.0 | 1.7 | 0.00 | 0.00 | 0.00 | 42 | 1015.2 |
| 20260506233101 | 76 | 134 | 0.0 | 5.2 | 0.00 | 0.00 | 0.00 | 38 | 1015.2 |
| 20260506231602 | 77 | 122 | 0.0 | 3.5 | 0.00 | 0.00 | 0.00 | 35 | 1015.3 |
| 20260506224604 | 76 | 136 | 0.9 | 4.3 | 0.00 | 0.00 | 0.00 | 35 | 1015.7 |
| 20260506223102 | 75 | 139 | 0.9 | 5.2 | 0.00 | 0.00 | 0.00 | 36 | 1016.0 |
| 20260506221601 | 74 | 35 | 3.5 | 6.1 | 0.00 | 0.00 | 0.00 | 36 | 1016.3 |
| 20260506220105 | 75 | 110 | 0.0 | 4.3 | 0.00 | 0.00 | 0.00 | 36 | 1016.6 |
| 20260506214603 | 74 | 163 | 1.7 | 4.3 | 0.00 | 0.00 | 0.00 | 37 | 1016.8 |
| 20260506213106 | 73 | 56 | 1.7 | 4.3 | 0.00 | 0.00 | 0.00 | 36 | 1017.2 |
| 20260506211602 | 73 | 130 | 3.5 | 4.3 | 0.00 | 0.00 | 0.00 | 38 | 1017.3 |
| 20260506210104 | 73 | 115 | 0.0 | 5.2 | 0.00 | 0.00 | 0.00 | 37 | 1017.6 |
| 20260506204602 | 72 | 146 | 0.0 | 4.3 | 0.00 | 0.00 | 0.00 | 38 | 1017.7 |
| 20260506203102 | 70 | 195 | 0.9 | 2.6 | 0.00 | 0.00 | 0.00 | 41 | 1017.9 |
| 20260506201605 | 69 | 281 | 1.7 | 4.3 | 0.00 | 0.00 | 0.00 | 39 | 1018.1 |
| 20260506193106 | 68 | 111 | 0.0 | 3.5 | 0.00 | 0.00 | 0.00 | 37 | 1018.8 |